Briefing drone pour Belleville

Rechercher une autre localisation

Conditions de vol :


Nous sommes le : Jeudi 30 juin 2022
Il est 20:16 UTC (22:16 LT)

Lever de soleil : 03:10 UTC (05:10 LT)
Coucher de soleil : 20:08 UTC (22:08 LT)

Météo

L'essentiel des conditions de vol

VIGILANCE MÉTÉO FRANCE - Meurthe-et-Moselle (54)
Vigilance Jaune : Orages
METAR de LFSN
LFSN 302000Z AUTO 24005KT 200V300 9999 RA BKN017/// OVC100/// ///TCU 15/13 Q1017

Date d'émission: 30/06/2022
Heure d'émission: 20:00 UTC
Vent: 240° (variable du 200° au 300°) pour 5 KT (9 km/h)
Visibilité horizontale: > 10 km
Plafond :
- Nuages morcelés à 1700ft (518m)
- Couvert à 10000ft (3048m)
Température: 15 °C
Point de rosée: 13 °C
Humidité: 88%
Pression (QNH): 1017 hPa
Conditions: Pluie
TAF de LFSN
LFSN 141600Z 1416/1512 CNL

Conditions prévues :

Heure d'émission : Bulletin éffectué le 14 à 16:00 UTC
Prévision : Valide du 14 a 16:00 UTC au 15 a 12:00 UTC
Nuages : à 0ft (0 m)
WEBCAM POUR BELLEVILLE

Réglementation

Voler en sécurité

CARTES AERONAUTIQUE 1/500.000
CARTES VAC (LFSN)
SUP AIP




Chargement des AIP...
NOTAM (BELLEVILLE + Terrain à proximité / FIR )




Chargement des NOTAMS...
CONTACT PREFECTURE 54


Avertissement : Les données mises à disposition sont indicatives. Oxygène Drone ne pourra être tenu responsable de dégâts causés aux biens et aux personnes.